createdAt,value
2023-05-19T00:01:00.468Z,100.00
2023-05-19T00:03:27.379Z,100.00
2023-05-19T00:05:54.206Z,100.00
2023-05-19T00:08:23.877Z,100.00
2023-05-19T00:10:50.703Z,100.00
2023-05-19T00:13:17.451Z,100.00
2023-05-19T00:15:44.397Z,100.00
2023-05-19T00:18:14.040Z,100.00
2023-05-19T00:20:41.366Z,100.00
2023-05-19T00:23:08.367Z,100.00
2023-05-19T00:25:34.841Z,100.00
2023-05-19T00:28:02.446Z,100.00
2023-05-19T00:30:30.262Z,100.00
2023-05-19T00:32:57.134Z,100.00
2023-05-19T00:35:24.234Z,100.00
2023-05-19T00:37:50.716Z,100.00
2023-05-19T00:40:17.411Z,100.00
2023-05-19T00:42:43.943Z,100.00
2023-05-19T00:45:10.638Z,100.00
2023-05-19T00:47:37.166Z,100.00
2023-05-19T00:50:03.849Z,100.00
2023-05-19T00:52:30.833Z,100.00
2023-05-19T00:54:57.401Z,100.00
2023-05-19T00:57:24.021Z,100.00
2023-05-19T00:59:50.619Z,100.00
2023-05-19T01:02:18.023Z,100.00
2023-05-19T01:04:45.096Z,100.00
2023-05-19T01:07:12.480Z,100.00
2023-05-19T01:09:40.724Z,100.00
2023-05-19T01:12:07.813Z,100.00
2023-05-19T01:14:34.365Z,100.00
2023-05-19T01:17:15.063Z,100.00
2023-05-19T01:20:02.224Z,100.00
2023-05-19T01:22:47.117Z,100.00
2023-05-19T01:25:37.465Z,100.00
2023-05-19T01:28:31.084Z,100.00
2023-05-19T01:31:00.288Z,100.00
2023-05-19T01:33:29.940Z,100.00
2023-05-19T01:35:57.843Z,100.00
2023-05-19T01:38:25.597Z,100.00
2023-05-19T01:40:52.909Z,100.00
2023-05-19T01:43:21.895Z,100.00
2023-05-19T01:45:49.115Z,100.00
2023-05-19T01:48:16.285Z,100.00
2023-05-19T01:50:42.944Z,100.00
2023-05-19T01:53:09.949Z,100.00
2023-05-19T01:55:44.378Z,100.00
2023-05-19T01:58:26.881Z,100.00
2023-05-19T02:00:56.723Z,100.00
2023-05-19T02:03:53.978Z,100.00
2023-05-19T02:06:49.634Z,100.00
2023-05-19T02:09:23.338Z,100.00
2023-05-19T02:11:58.756Z,100.00
2023-05-19T02:14:31.790Z,100.00
2023-05-19T02:16:59.465Z,100.00
2023-05-19T02:19:30.247Z,100.00
2023-05-19T02:21:56.779Z,100.00
2023-05-19T02:24:23.596Z,100.00
2023-05-19T02:26:51.851Z,100.00
2023-05-19T02:29:19.381Z,100.00
2023-05-19T02:31:46.131Z,100.00
2023-05-19T02:34:12.781Z,100.00
2023-05-19T02:36:41.476Z,100.00
2023-05-19T02:39:08.776Z,100.00
2023-05-19T02:41:35.345Z,100.00
2023-05-19T02:44:01.838Z,100.00
2023-05-19T02:46:28.365Z,100.00
2023-05-19T02:48:54.916Z,100.00
2023-05-19T02:51:21.554Z,100.00
2023-05-19T02:53:48.048Z,100.00
2023-05-19T02:56:14.504Z,100.00
2023-05-19T02:58:43.136Z,100.00
2023-05-19T03:01:10.013Z,100.00
2023-05-19T03:03:36.791Z,100.00
2023-05-19T03:06:03.679Z,100.00
2023-05-19T03:08:30.123Z,100.00
2023-05-19T03:10:56.584Z,100.00
2023-05-19T03:13:23.035Z,100.00
2023-05-19T03:15:51.109Z,100.00
2023-05-19T03:18:17.762Z,100.00
2023-05-19T03:20:44.697Z,100.00
2023-05-19T03:23:11.283Z,100.00
2023-05-19T03:25:37.818Z,100.00
2023-05-19T03:28:04.450Z,100.00
2023-05-19T03:30:31.190Z,100.00
2023-05-19T03:32:57.774Z,100.00
2023-05-19T03:35:24.319Z,100.00
2023-05-19T03:37:50.924Z,100.00
2023-05-19T03:40:18.828Z,100.00
2023-05-19T03:42:45.315Z,100.00
2023-05-19T03:45:11.829Z,100.00
2023-05-19T03:47:38.369Z,100.00
2023-05-19T03:50:05.359Z,100.00
2023-05-19T03:52:31.828Z,100.00
2023-05-19T03:54:58.659Z,100.00
2023-05-19T03:57:25.227Z,100.00
2023-05-19T03:59:51.888Z,100.00
2023-05-19T04:02:18.439Z,100.00
2023-05-19T04:04:45.067Z,100.00
2023-05-19T04:07:11.734Z,100.00
2023-05-19T04:09:38.964Z,100.00
2023-05-19T04:12:05.982Z,100.00
2023-05-19T04:14:32.475Z,100.00
2023-05-19T04:16:59.114Z,100.00
2023-05-19T04:19:25.736Z,100.00
2023-05-19T04:21:52.195Z,100.00
2023-05-19T04:24:18.655Z,100.00
2023-05-19T04:26:47.167Z,100.00
2023-05-19T04:29:18.170Z,100.00
2023-05-19T04:31:45.448Z,100.00
2023-05-19T04:34:12.005Z,100.00
2023-05-19T04:36:39.274Z,100.00
2023-05-19T04:39:09.227Z,100.00
2023-05-19T04:41:35.786Z,100.00
2023-05-19T04:44:02.301Z,100.00
2023-05-19T04:46:30.217Z,100.00
2023-05-19T04:48:57.185Z,100.00
2023-05-19T04:51:29.811Z,100.00
2023-05-19T04:53:57.909Z,100.00
2023-05-19T04:56:24.416Z,100.00
2023-05-19T04:58:50.998Z,100.00
2023-05-19T05:01:17.581Z,100.00
2023-05-19T05:03:44.658Z,100.00
2023-05-19T05:06:11.761Z,100.00
2023-05-19T05:08:40.458Z,100.00
2023-05-19T05:11:07.374Z,100.00
2023-05-19T05:13:34.359Z,100.00
2023-05-19T05:16:01.161Z,100.00
2023-05-19T05:18:27.867Z,100.00
2023-05-19T05:20:54.643Z,100.00
2023-05-19T05:23:21.328Z,100.00
2023-05-19T05:25:48.111Z,100.00
2023-05-19T05:28:14.856Z,100.00
2023-05-19T05:30:41.990Z,100.00
2023-05-19T05:33:09.250Z,100.00
2023-05-19T05:35:36.084Z,100.00
2023-05-19T05:38:03.332Z,100.00
2023-05-19T05:40:29.907Z,100.00
2023-05-19T05:42:56.841Z,100.00
2023-05-19T05:45:23.525Z,100.00
2023-05-19T05:47:51.340Z,100.00
2023-05-19T05:50:18.757Z,100.00
2023-05-19T05:52:49.826Z,100.00
2023-05-19T05:55:19.808Z,100.00
2023-05-19T05:57:46.311Z,100.00
2023-05-19T06:00:15.817Z,100.00
2023-05-19T06:02:49.322Z,100.00
2023-05-19T06:05:16.694Z,100.00
2023-05-19T06:07:43.824Z,100.00
2023-05-19T06:10:10.634Z,100.00
2023-05-19T06:12:40.586Z,100.00
2023-05-19T06:15:08.074Z,100.00
2023-05-19T06:17:35.933Z,100.00
2023-05-19T06:20:05.703Z,100.00
2023-05-19T06:22:32.332Z,100.00
2023-05-19T06:24:58.850Z,100.00
2023-05-19T06:27:25.654Z,100.00
2023-05-19T06:29:52.609Z,100.00
2023-05-19T06:32:19.227Z,100.00
2023-05-19T06:34:46.177Z,100.00
2023-05-19T06:37:14.830Z,100.00
2023-05-19T06:39:41.361Z,100.00
2023-05-19T06:42:07.843Z,100.00
2023-05-19T06:44:34.290Z,100.00
2023-05-19T06:47:00.824Z,100.00
2023-05-19T06:49:29.366Z,100.00
2023-05-19T06:51:55.835Z,100.00
2023-05-19T06:54:22.411Z,100.00
2023-05-19T06:56:49.153Z,100.00
2023-05-19T06:59:16.203Z,100.00
2023-05-19T07:01:42.707Z,98.55
2023-05-19T07:04:09.251Z,99.79
2023-05-19T07:06:35.773Z,99.74
2023-05-19T07:09:05.116Z,100.00
2023-05-19T07:11:32.131Z,99.87
2023-05-19T07:13:58.656Z,100.00
2023-05-19T07:16:25.218Z,98.17
2023-05-19T07:18:51.796Z,97.84
2023-05-19T07:21:18.337Z,97.86
2023-05-19T07:23:44.926Z,98.58
2023-05-19T07:26:11.646Z,97.48
2023-05-19T07:28:39.846Z,95.37
2023-05-19T07:31:08.122Z,93.38
2023-05-19T07:33:34.621Z,93.73
2023-05-19T07:36:01.185Z,93.61
2023-05-19T07:38:28.790Z,90.82
2023-05-19T07:40:55.408Z,92.91
2023-05-19T07:43:21.887Z,93.58
2023-05-19T07:45:48.475Z,91.63
2023-05-19T07:48:15.065Z,90.26
2023-05-19T07:50:41.690Z,89.96
2023-05-19T07:53:08.291Z,91.59
2023-05-19T07:55:34.855Z,90.13
2023-05-19T07:58:01.420Z,90.50
2023-05-19T08:00:28.389Z,89.20
2023-05-19T08:02:56.955Z,89.60
2023-05-19T08:05:23.865Z,87.77
2023-05-19T08:07:50.527Z,87.71
2023-05-19T08:10:17.414Z,86.30
2023-05-19T08:12:44.279Z,85.39
2023-05-19T08:15:11.818Z,86.55
2023-05-19T08:17:38.482Z,86.52
2023-05-19T08:20:08.370Z,85.55
2023-05-19T08:22:35.118Z,86.53
2023-05-19T08:25:01.636Z,84.31
2023-05-19T08:27:28.127Z,83.10
2023-05-19T08:29:55.332Z,83.19
2023-05-19T08:32:21.968Z,83.36
2023-05-19T08:34:48.822Z,83.06
2023-05-19T08:37:15.545Z,83.71
2023-05-19T08:39:42.216Z,81.74
2023-05-19T08:42:09.976Z,80.86
2023-05-19T08:44:37.823Z,79.54
2023-05-19T08:47:05.383Z,76.25
2023-05-19T08:49:42.943Z,77.00
2023-05-19T08:52:52.515Z,78.52
2023-05-19T08:55:34.401Z,75.54
2023-05-19T08:58:03.557Z,74.94
2023-05-19T09:00:30.634Z,75.42
2023-05-19T09:03:00.856Z,75.23
2023-05-19T09:05:38.995Z,74.08
2023-05-19T09:08:05.536Z,73.37
2023-05-19T09:10:31.998Z,74.27
2023-05-19T09:12:58.852Z,73.20
2023-05-19T09:15:28.440Z,73.44
2023-05-19T09:18:15.239Z,73.43
2023-05-19T09:20:46.031Z,74.71
2023-05-19T09:23:17.016Z,73.82
2023-05-19T09:25:53.689Z,73.56
2023-05-19T09:28:23.960Z,72.42
2023-05-19T09:31:18.814Z,72.37
2023-05-19T09:33:46.239Z,71.91
2023-05-19T09:36:13.831Z,71.73
2023-05-19T09:38:40.562Z,74.25
2023-05-19T09:41:08.615Z,73.12
2023-05-19T09:43:35.705Z,72.63
2023-05-19T09:46:12.947Z,72.26
2023-05-19T09:48:41.014Z,69.97
2023-05-19T09:51:10.685Z,71.24
2023-05-19T09:53:38.855Z,71.35
2023-05-19T09:56:06.072Z,69.03
2023-05-19T09:58:37.938Z,69.94
2023-05-19T10:01:05.609Z,71.08
2023-05-19T10:03:33.680Z,70.41
2023-05-19T10:06:09.138Z,70.87
2023-05-19T10:08:37.681Z,70.53
2023-05-19T10:11:05.532Z,70.83
2023-05-19T10:13:32.897Z,69.18
2023-05-19T10:16:00.634Z,69.81
2023-05-19T10:18:29.254Z,69.47
2023-05-19T10:20:57.751Z,69.12
2023-05-19T10:23:24.424Z,67.52
2023-05-19T10:25:56.037Z,69.12
2023-05-19T10:28:27.906Z,70.77
2023-05-19T10:30:58.697Z,69.63
2023-05-19T10:33:53.304Z,69.21
2023-05-19T10:36:44.914Z,67.71
2023-05-19T10:39:25.768Z,68.50
2023-05-19T10:42:15.972Z,67.64
2023-05-19T10:45:17.096Z,69.54
2023-05-19T10:47:44.606Z,69.60
2023-05-19T10:50:11.600Z,68.10
2023-05-19T10:52:40.077Z,68.99
2023-05-19T10:55:17.663Z,68.18
2023-05-19T10:57:56.794Z,68.04
2023-05-19T11:00:31.727Z,67.35
2023-05-19T11:03:18.616Z,68.56
2023-05-19T11:05:50.929Z,67.67
2023-05-19T11:08:34.806Z,67.17
2023-05-19T11:11:16.369Z,67.94
2023-05-19T11:13:55.014Z,68.05
2023-05-19T11:16:29.803Z,65.91
2023-05-19T11:18:59.072Z,64.49
2023-05-19T11:21:41.898Z,66.58
2023-05-19T11:24:09.528Z,66.59
2023-05-19T11:26:43.298Z,66.61
2023-05-19T11:29:10.706Z,65.90
2023-05-19T11:31:39.223Z,63.54
2023-05-19T11:34:07.211Z,63.88
2023-05-19T11:36:35.033Z,65.63
2023-05-19T11:39:02.526Z,65.43
2023-05-19T11:41:30.910Z,68.66
2023-05-19T11:43:57.760Z,66.04
2023-05-19T11:46:25.091Z,64.28
2023-05-19T11:48:53.533Z,64.87
2023-05-19T11:51:21.638Z,64.28
2023-05-19T11:53:49.759Z,62.62
2023-05-19T11:56:16.405Z,66.52
2023-05-19T11:58:42.913Z,68.89
2023-05-19T12:01:10.237Z,65.59
2023-05-19T12:03:36.941Z,64.67
2023-05-19T12:06:05.828Z,62.80
2023-05-19T12:08:32.619Z,63.11
2023-05-19T12:11:01.829Z,65.39
2023-05-19T12:13:28.906Z,61.84
2023-05-19T12:16:00.534Z,60.09
2023-05-19T12:18:30.763Z,57.28
2023-05-19T12:20:57.554Z,58.64
2023-05-19T12:23:24.866Z,55.89
2023-05-19T12:25:51.784Z,59.00
2023-05-19T12:28:19.432Z,59.76
2023-05-19T12:30:52.155Z,57.13
2023-05-19T12:33:19.711Z,58.80
2023-05-19T12:35:47.745Z,58.63
2023-05-19T12:38:14.695Z,53.64
2023-05-19T12:40:41.722Z,53.79
2023-05-19T12:43:09.735Z,55.85
2023-05-19T12:45:37.397Z,55.16
2023-05-19T12:48:12.155Z,56.08
2023-05-19T12:50:38.928Z,55.54
2023-05-19T12:53:09.092Z,55.42
2023-05-19T12:55:43.888Z,54.15
2023-05-19T12:58:11.921Z,55.43
2023-05-19T13:00:43.508Z,56.05
2023-05-19T13:03:16.533Z,54.98
2023-05-19T13:05:46.608Z,51.81
2023-05-19T13:08:18.667Z,52.14
2023-05-19T13:10:46.036Z,51.91
2023-05-19T13:13:13.636Z,50.13
2023-05-19T13:15:48.721Z,50.36
2023-05-19T13:18:15.813Z,50.03
2023-05-19T13:20:44.509Z,49.78
2023-05-19T13:23:11.813Z,48.74
2023-05-19T13:25:38.713Z,49.82
2023-05-19T13:28:06.004Z,51.70
2023-05-19T13:30:34.762Z,51.93
2023-05-19T13:33:01.931Z,50.42
2023-05-19T13:35:28.962Z,52.91
2023-05-19T13:37:55.485Z,49.50
2023-05-19T13:40:23.885Z,51.05
2023-05-19T13:42:50.371Z,51.58
2023-05-19T13:45:17.341Z,49.06
2023-05-19T13:47:43.922Z,49.16
2023-05-19T13:50:10.607Z,49.01
2023-05-19T13:52:37.108Z,49.41
2023-05-19T13:55:03.990Z,49.75
2023-05-19T13:57:30.475Z,49.47
2023-05-19T14:00:03.310Z,49.54
2023-05-19T14:02:30.948Z,48.34
2023-05-19T14:04:58.075Z,48.71
2023-05-19T14:07:25.399Z,49.43
2023-05-19T14:09:52.514Z,48.94
2023-05-19T14:12:20.240Z,48.34
2023-05-19T14:14:50.116Z,48.12
2023-05-19T14:17:16.696Z,50.07
2023-05-19T14:19:43.150Z,49.36
2023-05-19T14:22:09.700Z,47.67
2023-05-19T14:24:36.279Z,49.01
2023-05-19T14:27:02.809Z,49.35
2023-05-19T14:29:31.113Z,48.70
2023-05-19T14:31:57.828Z,48.48
2023-05-19T14:34:24.419Z,47.89
2023-05-19T14:36:51.004Z,47.46
2023-05-19T14:39:17.472Z,49.83
2023-05-19T14:41:44.023Z,48.51
2023-05-19T14:44:10.666Z,48.70
2023-05-19T14:46:37.168Z,48.65
2023-05-19T14:49:04.179Z,48.26
2023-05-19T14:51:31.585Z,47.83
2023-05-19T14:53:58.116Z,48.41
2023-05-19T14:56:24.607Z,47.57
2023-05-19T14:58:51.107Z,48.25
2023-05-19T15:01:17.719Z,48.91
2023-05-19T15:03:44.293Z,48.62
2023-05-19T15:06:11.169Z,48.72
2023-05-19T15:08:39.161Z,48.08
2023-05-19T15:11:05.938Z,47.93
2023-05-19T15:13:32.582Z,46.82
2023-05-19T15:16:15.632Z,48.45
2023-05-19T15:18:43.839Z,46.75
2023-05-19T15:21:10.481Z,47.47
2023-05-19T15:23:36.955Z,48.15
2023-05-19T15:26:03.845Z,46.97
2023-05-19T15:28:30.372Z,48.37
2023-05-19T15:30:56.877Z,48.89
2023-05-19T15:33:23.461Z,46.79
2023-05-19T15:35:52.007Z,47.10
2023-05-19T15:38:19.508Z,47.31
2023-05-19T15:40:47.226Z,47.52
2023-05-19T15:43:14.106Z,45.49
2023-05-19T15:45:40.950Z,48.62
2023-05-19T15:48:07.783Z,48.17
2023-05-19T15:50:34.742Z,47.16
2023-05-19T15:53:01.799Z,46.62
2023-05-19T15:55:28.354Z,47.20
2023-05-19T15:57:54.854Z,45.57
2023-05-19T16:00:21.485Z,45.55
2023-05-19T16:02:48.317Z,46.36
2023-05-19T16:05:14.879Z,47.38
2023-05-19T16:07:42.131Z,46.40
2023-05-19T16:10:09.333Z,47.50
2023-05-19T16:12:36.783Z,47.47
2023-05-19T16:15:03.834Z,47.67
2023-05-19T16:17:30.635Z,46.46
2023-05-19T16:19:57.273Z,46.85
2023-05-19T16:22:24.904Z,47.08
2023-05-19T16:24:52.346Z,46.51
2023-05-19T16:27:19.112Z,46.08
2023-05-19T16:29:45.834Z,45.74
2023-05-19T16:32:12.776Z,46.58
2023-05-19T16:34:39.599Z,46.88
2023-05-19T16:37:06.340Z,46.58
2023-05-19T16:39:32.894Z,46.70
2023-05-19T16:42:00.644Z,47.73
2023-05-19T16:44:27.129Z,47.84
2023-05-19T16:46:56.635Z,47.86
2023-05-19T16:49:23.215Z,47.59
2023-05-19T16:51:50.034Z,45.64
2023-05-19T16:54:16.693Z,48.29
2023-05-19T16:56:43.207Z,48.23
2023-05-19T16:59:09.798Z,47.86
2023-05-19T17:01:36.398Z,46.00
2023-05-19T17:04:02.942Z,46.31
2023-05-19T17:06:29.534Z,48.02
2023-05-19T17:08:56.116Z,46.97
2023-05-19T17:11:22.721Z,47.10
2023-05-19T17:13:49.258Z,46.33
2023-05-19T17:16:15.972Z,45.14
2023-05-19T17:18:43.744Z,45.74
2023-05-19T17:21:10.672Z,46.88
2023-05-19T17:23:37.848Z,47.85
2023-05-19T17:26:04.672Z,48.17
2023-05-19T17:28:31.215Z,47.88
2023-05-19T17:30:57.835Z,48.55
2023-05-19T17:33:24.520Z,48.06
2023-05-19T17:35:51.221Z,46.91
2023-05-19T17:38:17.702Z,47.18
2023-05-19T17:40:44.424Z,47.44
2023-05-19T17:43:10.977Z,47.33
2023-05-19T17:45:37.430Z,48.59
2023-05-19T17:48:04.753Z,47.86
2023-05-19T17:50:31.432Z,47.34
2023-05-19T17:52:58.418Z,47.68
2023-05-19T17:55:29.722Z,48.61
2023-05-19T17:57:56.858Z,48.45
2023-05-19T18:00:24.973Z,49.08
2023-05-19T18:02:52.030Z,49.17
2023-05-19T18:05:18.932Z,49.42
2023-05-19T18:07:45.810Z,50.71
2023-05-19T18:10:15.370Z,49.01
2023-05-19T18:12:41.989Z,50.01
2023-05-19T18:15:08.838Z,50.67
2023-05-19T18:17:35.496Z,50.64
2023-05-19T18:20:02.370Z,50.51
2023-05-19T18:22:28.954Z,51.98
2023-05-19T18:24:56.243Z,50.47
2023-05-19T18:27:22.911Z,51.01
2023-05-19T18:29:49.358Z,52.02
2023-05-19T18:32:17.674Z,51.37
2023-05-19T18:34:44.300Z,51.64
2023-05-19T18:37:10.914Z,53.13
2023-05-19T18:39:37.431Z,53.38
2023-05-19T18:42:04.163Z,53.94
2023-05-19T18:44:30.697Z,53.04
2023-05-19T18:46:57.183Z,53.89
2023-05-19T18:49:24.893Z,52.88
2023-05-19T18:51:51.617Z,54.23
2023-05-19T18:54:18.189Z,54.43
2023-05-19T18:56:44.730Z,53.77
2023-05-19T18:59:11.444Z,54.90
2023-05-19T19:01:38.057Z,55.17
2023-05-19T19:04:04.802Z,55.16
2023-05-19T19:06:31.792Z,54.90
2023-05-19T19:08:58.310Z,55.37
2023-05-19T19:11:24.821Z,54.67
2023-05-19T19:13:51.488Z,55.71
2023-05-19T19:16:18.196Z,55.95
2023-05-19T19:18:44.890Z,56.66
2023-05-19T19:21:11.431Z,56.00
2023-05-19T19:23:38.122Z,56.52
2023-05-19T19:26:04.653Z,57.38
2023-05-19T19:28:31.213Z,56.71
2023-05-19T19:30:57.742Z,57.88
2023-05-19T19:33:24.748Z,57.74
2023-05-19T19:35:51.502Z,57.57
2023-05-19T19:38:18.062Z,58.30
2023-05-19T19:40:44.597Z,58.18
2023-05-19T19:43:11.345Z,59.18
2023-05-19T19:45:39.536Z,59.07
2023-05-19T19:48:07.208Z,59.67
2023-05-19T19:50:34.512Z,59.35
2023-05-19T19:53:01.384Z,59.03
2023-05-19T19:55:28.888Z,59.25
2023-05-19T19:57:55.470Z,60.16
2023-05-19T20:00:21.974Z,59.83
2023-05-19T20:03:03.860Z,60.09
2023-05-19T20:05:31.416Z,61.72
2023-05-19T20:07:57.999Z,60.54
2023-05-19T20:10:24.611Z,60.76
2023-05-19T20:12:51.823Z,61.51
2023-05-19T20:15:18.594Z,61.20
2023-05-19T20:17:45.800Z,62.08
2023-05-19T20:20:13.042Z,61.11
2023-05-19T20:22:39.645Z,61.89
2023-05-19T20:25:06.608Z,62.33
2023-05-19T20:27:33.215Z,62.51
2023-05-19T20:29:59.848Z,63.13
2023-05-19T20:32:26.426Z,62.65
2023-05-19T20:34:53.064Z,62.87
2023-05-19T20:37:20.988Z,63.45
2023-05-19T20:39:47.751Z,64.05
2023-05-19T20:42:14.341Z,64.96
2023-05-19T20:44:41.534Z,65.28
2023-05-19T20:47:08.483Z,64.95
2023-05-19T20:49:35.214Z,65.06
2023-05-19T20:52:02.041Z,65.18
2023-05-19T20:54:28.564Z,65.28
2023-05-19T20:56:55.088Z,65.93
2023-05-19T20:59:21.965Z,66.31
2023-05-19T21:01:48.543Z,66.04
2023-05-19T21:04:15.096Z,66.58
2023-05-19T21:06:41.669Z,66.58
2023-05-19T21:09:08.197Z,66.93
2023-05-19T21:11:34.730Z,67.65
2023-05-19T21:14:04.186Z,67.89
2023-05-19T21:16:31.426Z,68.32
2023-05-19T21:18:58.104Z,68.23
2023-05-19T21:21:24.900Z,68.73
2023-05-19T21:23:51.593Z,69.46
2023-05-19T21:26:18.211Z,69.41
2023-05-19T21:28:44.760Z,69.89
2023-05-19T21:31:11.341Z,70.18
2023-05-19T21:33:38.028Z,70.24
2023-05-19T21:36:04.833Z,71.00
2023-05-19T21:38:31.375Z,71.63
2023-05-19T21:40:57.879Z,70.46
2023-05-19T21:43:24.392Z,71.50
2023-05-19T21:45:50.927Z,72.54
2023-05-19T21:48:17.751Z,72.13
2023-05-19T21:50:44.750Z,72.25
2023-05-19T21:53:11.234Z,72.90
2023-05-19T21:55:37.776Z,73.21
2023-05-19T21:58:04.300Z,74.12
2023-05-19T22:00:30.830Z,74.02
2023-05-19T22:02:57.693Z,74.59
2023-05-19T22:05:24.271Z,73.50
2023-05-19T22:07:50.758Z,74.12
2023-05-19T22:10:17.418Z,74.66
2023-05-19T22:12:44.017Z,74.21
2023-05-19T22:15:11.407Z,74.11
2023-05-19T22:17:38.030Z,74.83
2023-05-19T22:20:05.362Z,74.58
2023-05-19T22:22:31.885Z,75.05
2023-05-19T22:24:58.615Z,74.97
2023-05-19T22:27:25.206Z,75.26
2023-05-19T22:29:51.759Z,75.29
2023-05-19T22:32:19.474Z,75.76
2023-05-19T22:34:46.464Z,75.82
2023-05-19T22:37:13.176Z,75.55
2023-05-19T22:39:39.680Z,76.32
2023-05-19T22:42:06.234Z,76.33
2023-05-19T22:44:32.909Z,76.00
2023-05-19T22:46:59.486Z,76.19
2023-05-19T22:49:27.405Z,76.49
2023-05-19T22:51:53.969Z,76.39
2023-05-19T22:54:20.653Z,77.22
2023-05-19T22:56:48.899Z,76.47
2023-05-19T22:59:17.895Z,77.11
2023-05-19T23:01:46.530Z,77.98
2023-05-19T23:04:13.968Z,77.70
2023-05-19T23:06:41.575Z,77.30
2023-05-19T23:09:08.174Z,77.64
2023-05-19T23:11:35.884Z,77.99
2023-05-19T23:14:02.531Z,77.96
2023-05-19T23:16:29.091Z,77.39
2023-05-19T23:18:55.736Z,78.70
2023-05-19T23:21:22.291Z,78.44
2023-05-19T23:23:49.798Z,79.14
2023-05-19T23:26:16.632Z,78.98
2023-05-19T23:28:43.300Z,80.12
2023-05-19T23:31:10.261Z,79.37
2023-05-19T23:33:37.017Z,79.14
2023-05-19T23:36:07.913Z,79.23
2023-05-19T23:38:35.236Z,79.54
2023-05-19T23:41:02.286Z,80.46
2023-05-19T23:43:28.857Z,80.24
2023-05-19T23:45:55.522Z,80.15
2023-05-19T23:48:22.009Z,80.80
2023-05-19T23:50:48.465Z,80.87
2023-05-19T23:53:15.168Z,81.54
2023-05-19T23:55:42.298Z,81.09
2023-05-19T23:58:08.878Z,82.21
